^^
TXWeather Station Historical Data
 
Daily Summary for October 16, 2019 Units:  English    Metric   Both
Daily Weekly Monthly Yearly Custom
  Current: High: Low: Average:
Temperature: 65 °F 78 °F 64 °F 70.6 °F
Dew Point: 58 °F 75 °F 58 °F 67.1 °F
Humidity: 79% 96% 76% 89%
Wind Speed: 3mph 13mph 0mph 4.6mph
Wind Gust: 4mph 19mph - -
WindN - - SSW
Pressure: 30.06 in 30.1 in 29.9 in -
Precipitation: 0.48 in      
Historical Graphs
 
 
Tabular Data for October 16, 2019
Time Temperature Dew Point Pressure Wind Wind Speed Wind Gust Humidity Rainfall Rate (Hourly) solar
00:04 78 °F 74 °F 29.93 in SSW 2 mph 4 mph 89% 0 in 0 W/m2
00:09 78 °F 74 °F 29.93 in SW 1 mph 4 mph 89% 0 in 0 W/m2
00:14 78 °F 74 °F 29.92 in S 2 mph 4 mph 89% 0 in 0 W/m2
00:19 78 °F 75 °F 29.93 in SSW 3 mph 6 mph 89% 0 in 0 W/m2
00:24 78 °F 75 °F 29.92 in S 2 mph 4 mph 89% 0 in 0 W/m2
00:29 78 °F 75 °F 29.92 in S 2 mph 5 mph 89% 0 in 0 W/m2
00:34 78 °F 75 °F 29.92 in SSW 2 mph 5 mph 88% 0 in 0 W/m2
00:39 78 °F 75 °F 29.92 in SSW 1 mph 5 mph 88% 0 in 0 W/m2
00:44 78 °F 75 °F 29.92 in SW 2 mph 5 mph 88% 0 in 0 W/m2
00:49 78 °F 75 °F 29.92 in SW 2 mph 4 mph 89% 0 in 0 W/m2
00:54 78 °F 75 °F 29.92 in WSW 1 mph 4 mph 89% 0 in 0 W/m2
00:59 78 °F 75 °F 29.92 in SW 1 mph 3 mph 89% 0 in 0 W/m2
01:04 78 °F 74 °F 29.92 in WSW 1 mph 3 mph 89% 0 in 0 W/m2
01:09 78 °F 74 °F 29.92 in S 2 mph 5 mph 89% 0 in 0 W/m2
01:14 78 °F 74 °F 29.91 in S 3 mph 5 mph 89% 0 in 0 W/m2
01:19 77 °F 74 °F 29.91 in S 2 mph 5 mph 90% 0 in 0 W/m2
01:24 77 °F 74 °F 29.91 in SSW 1 mph 4 mph 90% 0 in 0 W/m2
01:29 77 °F 74 °F 29.91 in SSW 1 mph 3 mph 90% 0 in 0 W/m2
01:34 77 °F 74 °F 29.9 in S 2 mph 4 mph 90% 0 in 0 W/m2
01:39 77 °F 74 °F 29.9 in S 3 mph 6 mph 90% 0 in 0 W/m2
01:44 77 °F 74 °F 29.9 in S 1 mph 4 mph 91% 0 in 0 W/m2
01:49 77 °F 74 °F 29.91 in SW 1 mph 3 mph 91% 0 in 0 W/m2
01:54 77 °F 74 °F 29.91 in WSW 1 mph 4 mph 91% 0 in 0 W/m2
01:59 77 °F 74 °F 29.91 in SW 2 mph 4 mph 91% 0 in 0 W/m2
02:04 77 °F 74 °F 29.91 in SW 2 mph 3 mph 90% 0 in 0 W/m2
02:09 77 °F 74 °F 29.92 in SW 2 mph 4 mph 90% 0 in 0 W/m2
02:14 77 °F 74 °F 29.92 in WSW 2 mph 4 mph 90% 0 in 0 W/m2
02:19 77 °F 74 °F 29.92 in SW 1 mph 3 mph 90% 0 in 0 W/m2
02:24 77 °F 74 °F 29.91 in SSW 2 mph 4 mph 91% 0 in 0 W/m2
02:29 77 °F 74 °F 29.91 in SSW 1 mph 3 mph 91% 0 in 0 W/m2
02:34 77 °F 74 °F 29.91 in S 3 mph 5 mph 92% 0 in 0 W/m2
02:39 77 °F 74 °F 29.92 in S 2 mph 5 mph 92% 0 in 0 W/m2
02:44 77 °F 74 °F 29.92 in SSW 2 mph 6 mph 92% 0 in 0 W/m2
02:49 77 °F 74 °F 29.92 in SW 1 mph 3 mph 92% 0 in 0 W/m2
02:54 77 °F 74 °F 29.91 in SW 1 mph 3 mph 92% 0 in 0 W/m2
02:59 77 °F 75 °F 29.91 in WSW 2 mph 6 mph 92% 0 in 0 W/m2
03:04 77 °F 75 °F 29.91 in SW 1 mph 6 mph 92% 0 in 0 W/m2
03:09 77 °F 75 °F 29.91 in SSW 1 mph 2 mph 92% 0 in 0 W/m2
03:14 77 °F 75 °F 29.91 in SSW 1 mph 3 mph 92% 0 in 0 W/m2
03:19 77 °F 75 °F 29.91 in WNW 2 mph 4 mph 92% 0 in 0 W/m2
03:24 77 °F 75 °F 29.92 in NNW 4 mph 6 mph 92% 0 in 0 W/m2
03:29 78 °F 75 °F 29.92 in NNW 5 mph 9 mph 91% 0 in 0 W/m2
03:34 78 °F 75 °F 29.92 in NW 3 mph 8 mph 91% 0 in 0 W/m2
03:39 78 °F 75 °F 29.92 in WNW 8 mph 17 mph 90% 0 in 0 W/m2
03:44 77 °F 73 °F 29.93 in NNW 12 mph 19 mph 86% 0 in 0 W/m2
03:49 75 °F 71 °F 29.92 in NNW 9 mph 19 mph 86% 0.06 in 0 W/m2
03:54 74 °F 71 °F 29.92 in NNW 7 mph 19 mph 89% 0.11 in 0 W/m2
03:59 73 °F 71 °F 29.92 in NW 5 mph 10 mph 92% 0.24 in 0 W/m2
04:04 74 °F 72 °F 29.92 in NNW 6 mph 12 mph 94% 0.3 in 0 W/m2
04:09 74 °F 72 °F 29.92 in NW 4 mph 8 mph 94% 0.33 in 0 W/m2
04:14 74 °F 72 °F 29.92 in WNW 4 mph 9 mph 94% 0.35 in 0 W/m2
04:19 74 °F 73 °F 29.92 in W 2 mph 7 mph 94% 0.39 in 0 W/m2
04:24 74 °F 73 °F 29.91 in W 1 mph 4 mph 95% 0.4 in 0 W/m2
04:29 74 °F 72 °F 29.92 in WSW 3 mph 7 mph 94% 0.41 in 0 W/m2
04:34 73 °F 72 °F 29.92 in SSW 2 mph 4 mph 94% 0.41 in 0 W/m2
04:39 73 °F 71 °F 29.91 in S 3 mph 7 mph 94% 0.41 in 0 W/m2
04:44 73 °F 71 °F 29.92 in S 3 mph 5 mph 94% 0.43 in 0 W/m2
04:49 73 °F 71 °F 29.93 in S 2 mph 5 mph 95% 0.44 in 0 W/m2
04:54 73 °F 71 °F 29.93 in SSE 1 mph 4 mph 95% 0.37 in 0 W/m2
04:59 73 °F 71 °F 29.93 in Calm   1 mph 95% 0.33 in 0 W/m2
05:04 73 °F 71 °F 29.93 in S 1 mph 2 mph 95% 0.16 in 0 W/m2
05:09 73 °F 72 °F 29.94 in SSE 1 mph 2 mph 95% 0.15 in 0 W/m2
05:14 73 °F 72 °F 29.94 in Calm   2 mph 96% 0.13 in 0 W/m2
05:19 73 °F 72 °F 29.95 in SSE 1 mph 2 mph 96% 0.1 in 0 W/m2
05:24 73 °F 72 °F 29.95 in SSE 1 mph 2 mph 96% 0.07 in 0 W/m2
05:29 73 °F 72 °F 29.95 in SSE 1 mph 4 mph 96% 0.07 in 0 W/m2
05:34 73 °F 72 °F 29.94 in ENE 2 mph 3 mph 96% 0.06 in 0 W/m2
05:39 73 °F 72 °F 29.95 in NNE 1 mph 4 mph 96% 0.06 in 0 W/m2
05:44 73 °F 72 °F 29.95 in NNE 1 mph 4 mph 96% 0.05 in 0 W/m2
05:49 73 °F 72 °F 29.95 in Calm   2 mph 96% 0.02 in 0 W/m2
05:54 73 °F 72 °F 29.96 in NNE 1 mph 2 mph 96% 0.01 in 0 W/m2
05:59 73 °F 72 °F 29.96 in NNE 1 mph 2 mph 96% 0.01 in 0 W/m2
06:04 73 °F 72 °F 29.96 in NNE 1 mph 2 mph 96% 0.01 in 0 W/m2
06:09 73 °F 72 °F 29.96 in NNE 1 mph 2 mph 96% 0.01 in 0 W/m2
06:14 73 °F 72 °F 29.96 in Calm   2 mph 96% 0.01 in 0 W/m2
06:19 73 °F 72 °F 29.96 in NNE 1 mph 2 mph 96% 0.01 in 0 W/m2
06:24 73 °F 72 °F 29.95 in NNE 2 mph 3 mph 96% 0.01 in 0 W/m2
06:29 73 °F 72 °F 29.96 in NE 1 mph 4 mph 96% 0 in 0 W/m2
06:34 73 °F 72 °F 29.96 in NE 1 mph 4 mph 96% 0 in 0 W/m2
06:39 73 °F 72 °F 29.96 in NNE 2 mph 3 mph 96% 0 in 0 W/m2
06:44 73 °F 72 °F 29.96 in N 1 mph 3 mph 96% 0 in 0 W/m2
06:49 73 °F 72 °F 29.96 in N 1 mph 3 mph 96% 0 in 0 W/m2
06:54 73 °F 72 °F 29.96 in Calm   1 mph 96% 0 in 0 W/m2
06:59 73 °F 72 °F 29.96 in N 1 mph 2 mph 96% 0 in 0 W/m2
07:04 73 °F 72 °F 29.96 in N 1 mph 3 mph 96% 0 in 0 W/m2
07:09 73 °F 72 °F 29.97 in N 1 mph 3 mph 96% 0 in 0 W/m2
07:14 73 °F 72 °F 29.97 in N 2 mph 3 mph 96% 0 in 0 W/m2
07:19 74 °F 72 °F 29.97 in N 1 mph 2 mph 96% 0 in 0 W/m2
07:24 74 °F 72 °F 29.97 in N 1 mph 2 mph 96% 0 in 0 W/m2
07:29 74 °F 72 °F 29.97 in NE 1 mph 2 mph 96% 0 in 0 W/m2
07:34 73 °F 72 °F 29.97 in E 1 mph 2 mph 96% 0 in 0 W/m2
07:39 74 °F 72 °F 29.98 in NE 2 mph 3 mph 96% 0 in 0 W/m2
07:44 74 °F 73 °F 29.98 in N 2 mph 3 mph 96% 0 in 0 W/m2
07:49 74 °F 72 °F 29.98 in N 3 mph 4 mph 96% 0 in 0 W/m2
07:54 74 °F 73 °F 29.99 in N 3 mph 5 mph 96% 0 in 0 W/m2
07:59 74 °F 72 °F 29.99 in N 2 mph 4 mph 96% 0 in 5 W/m2
08:04 74 °F 72 °F 29.99 in N 5 mph 9 mph 96% 0 in 11 W/m2
08:09 74 °F 73 °F 30 in NNE 4 mph 8 mph 96% 0 in 21 W/m2
08:14 74 °F 73 °F 30 in N 7 mph 11 mph 96% 0 in 19 W/m2
08:19 74 °F 72 °F 30 in N 6 mph 11 mph 96% 0 in 21 W/m2
08:24 74 °F 72 °F 30.01 in NNE 6 mph 11 mph 96% 0 in 19 W/m2
08:29 74 °F 72 °F 30.01 in N 7 mph 11 mph 96% 0 in 21 W/m2
08:34 74 °F 72 °F 30.01 in NNE 6 mph 11 mph 96% 0 in 35 W/m2
08:39 74 °F 72 °F 30.01 in N 5 mph 10 mph 96% 0 in 37 W/m2
08:44 74 °F 72 °F 30.02 in NNE 7 mph 13 mph 95% 0 in 35 W/m2
08:49 74 °F 72 °F 30.02 in NNE 6 mph 10 mph 95% 0 in 39 W/m2
08:54 74 °F 72 °F 30.03 in N 7 mph 13 mph 95% 0 in 33 W/m2
08:59 74 °F 72 °F 30.03 in NNE 6 mph 13 mph 95% 0 in 25 W/m2
09:04 74 °F 72 °F 30.04 in NNE 6 mph 11 mph 95% 0 in 14 W/m2
09:09 74 °F 72 °F 30.04 in NNE 6 mph 10 mph 94% 0 in 16 W/m2
09:14 74 °F 72 °F 30.04 in N 6 mph 11 mph 94% 0 in 14 W/m2
09:19 73 °F 72 °F 30.05 in N 8 mph 14 mph 94% 0 in 23 W/m2
09:24 73 °F 72 °F 30.05 in NNE 7 mph 13 mph 94% 0 in 21 W/m2
09:29 73 °F 72 °F 30.05 in N 6 mph 12 mph 94% 0 in 19 W/m2
09:34 73 °F 72 °F 30.05 in N 6 mph 12 mph 94% 0 in 21 W/m2
09:39 73 °F 71 °F 30.05 in N 6 mph 12 mph 93% 0 in 26 W/m2
09:44 73 °F 71 °F 30.06 in N 8 mph 14 mph 93% 0 in 23 W/m2
09:49 73 °F 71 °F 30.07 in N 7 mph 14 mph 93% 0 in 11 W/m2
09:54 73 °F 70 °F 30.07 in NNW 11 mph 17 mph 92% 0 in 9 W/m2
09:59 71 °F 69 °F 30.07 in NNW 7 mph 14 mph 91% 0 in 26 W/m2
10:04 70 °F 68 °F 30.07 in N 6 mph 15 mph 91% 0 in 51 W/m2
10:09 70 °F 67 °F 30.06 in N 2 mph 8 mph 92% 0 in 63 W/m2
10:14 69 °F 67 °F 30.06 in NE 2 mph 8 mph 93% 0 in 65 W/m2
10:19 69 °F 67 °F 30.07 in NNW 4 mph 8 mph 93% 0 in 44 W/m2
10:24 69 °F 67 °F 30.09 in NNW 7 mph 12 mph 94% 0 in 33 W/m2
10:29 69 °F 67 °F 30.1 in NW 8 mph 13 mph 93% 0 in 11 W/m2
10:34 68 °F 66 °F 30.09 in NNW 8 mph 16 mph 93% 0 in 12 W/m2
10:39 68 °F 66 °F 30.1 in NNW 7 mph 13 mph 93% 0 in 12 W/m2
10:44 67 °F 65 °F 30.1 in NNW 8 mph 15 mph 93% 0 in 16 W/m2
10:49 67 °F 65 °F 30.1 in NNW 7 mph 11 mph 93% 0 in 21 W/m2
10:54 67 °F 65 °F 30.09 in NNW 7 mph 12 mph 93% 0 in 35 W/m2
10:59 67 °F 65 °F 30.1 in NNW 6 mph 10 mph 93% 0 in 40 W/m2
11:04 67 °F 65 °F 30.09 in N 4 mph 10 mph 93% 0 in 93 W/m2
11:09 67 °F 65 °F 30.09 in NNW 6 mph 11 mph 94% 0 in 63 W/m2
11:14 67 °F 65 °F 30.09 in NNW 6 mph 12 mph 94% 0 in 46 W/m2
11:19 67 °F 65 °F 30.09 in NNW 6 mph 12 mph 93% 0 in 28 W/m2
11:24 67 °F 65 °F 30.09 in N 9 mph 15 mph 93% 0 in 35 W/m2
11:29 66 °F 65 °F 30.08 in NNW 7 mph 15 mph 94% 0 in 76 W/m2
11:34 66 °F 65 °F 30.09 in N 9 mph 14 mph 94% 0 in 58 W/m2
11:39 66 °F 64 °F 30.09 in NNW 10 mph 16 mph 93% 0 in 37 W/m2
11:44 66 °F 63 °F 30.1 in N 7 mph 13 mph 93% 0 in 51 W/m2
11:49 65 °F 63 °F 30.09 in N 9 mph 16 mph 92% 0 in 102 W/m2
11:54 65 °F 63 °F 30.08 in N 10 mph 18 mph 92% 0 in 139 W/m2
11:59 65 °F 63 °F 30.08 in N 8 mph 18 mph 92% 0 in 153 W/m2
12:04 65 °F 63 °F 30.07 in N 7 mph 14 mph 91% 0 in 158 W/m2
12:09 65 °F 62 °F 30.08 in N 7 mph 14 mph 91% 0 in 135 W/m2
12:14 65 °F 62 °F 30.08 in N 8 mph 15 mph 91% 0.01 in 69 W/m2
12:19 65 °F 62 °F 30.08 in N 8 mph 18 mph 91% 0.01 in 70 W/m2
12:24 65 °F 62 °F 30.08 in N 10 mph 18 mph 90% 0.01 in 120 W/m2
12:29 65 °F 61 °F 30.08 in N 9 mph 14 mph 90% 0.01 in 120 W/m2
12:34 64 °F 61 °F 30.08 in N 11 mph 17 mph 89% 0.01 in 95 W/m2
12:39 64 °F 61 °F 30.09 in NNW 9 mph 14 mph 89% 0.01 in 107 W/m2
12:44 65 °F 61 °F 30.1 in NNW 6 mph 14 mph 89% 0.01 in 77 W/m2
12:49 64 °F 61 °F 30.1 in NNW 11 mph 15 mph 88% 0.01 in 83 W/m2
12:54 64 °F 61 °F 30.09 in NNW 8 mph 15 mph 88% 0.01 in 135 W/m2
12:59 65 °F 61 °F 30.09 in N 9 mph 15 mph 88% 0.01 in 185 W/m2
13:04 65 °F 61 °F 30.08 in N 7 mph 15 mph 87% 0.01 in 185 W/m2
13:09 65 °F 61 °F 30.09 in N 8 mph 16 mph 87% 0.01 in 185 W/m2
13:14 65 °F 61 °F 30.09 in N 13 mph 19 mph 86% 0.01 in 148 W/m2
13:19 65 °F 61 °F 30.09 in N 11 mph 19 mph 86% 0 in 167 W/m2
13:24 65 °F 61 °F 30.08 in N 10 mph 16 mph 86% 0 in 181 W/m2
13:29 65 °F 61 °F 30.09 in N 10 mph 17 mph 86% 0 in 188 W/m2
13:34 66 °F 61 °F 30.09 in N 7 mph 17 mph 85% 0 in 218 W/m2
13:39 66 °F 61 °F 30.1 in N 7 mph 14 mph 85% 0 in 216 W/m2
13:44 66 °F 61 °F 30.09 in N 8 mph 15 mph 85% 0 in 251 W/m2
13:49 66 °F 61 °F 30.09 in N 8 mph 18 mph 84% 0 in 206 W/m2
13:54 66 °F 61 °F 30.09 in N 9 mph 15 mph 84% 0 in 188 W/m2
13:59 66 °F 61 °F 30.09 in N 11 mph 17 mph 84% 0 in 163 W/m2
14:04 65 °F 61 °F 30.09 in N 9 mph 17 mph 84% 0 in 163 W/m2
14:09 65 °F 61 °F 30.09 in N 6 mph 12 mph 85% 0 in 127 W/m2
14:14 65 °F 61 °F 30.09 in N 5 mph 12 mph 85% 0 in 114 W/m2
14:19 65 °F 61 °F 30.1 in N 8 mph 11 mph 85% 0 in 118 W/m2
14:24 65 °F 60 °F 30.1 in NNW 9 mph 16 mph 84% 0 in 90 W/m2
14:29 65 °F 60 °F 30.1 in NNW 6 mph 11 mph 85% 0 in 77 W/m2
14:34 65 °F 61 °F 30.1 in N 6 mph 11 mph 85% 0 in 83 W/m2
14:39 66 °F 61 °F 30.1 in N 8 mph 12 mph 84% 0 in 84 W/m2
14:44 66 °F 61 °F 30.1 in NNW 5 mph 11 mph 84% 0 in 76 W/m2
14:49 66 °F 61 °F 30.1 in N 6 mph 12 mph 84% 0 in 79 W/m2
14:54 66 °F 61 °F 30.1 in N 7 mph 11 mph 83% 0 in 76 W/m2
14:59 66 °F 60 °F 30.1 in NNW 6 mph 11 mph 84% 0 in 90 W/m2
15:04 66 °F 61 °F 30.09 in N 5 mph 11 mph 84% 0 in 120 W/m2
15:09 66 °F 61 °F 30.09 in NNW 7 mph 12 mph 83% 0 in 165 W/m2
15:14 66 °F 61 °F 30.09 in N 5 mph 10 mph 83% 0 in 257 W/m2
15:19 67 °F 61 °F 30.09 in N 9 mph 14 mph 82% 0 in 236 W/m2
15:24 67 °F 61 °F 30.09 in NNW 7 mph 12 mph 82% 0 in 153 W/m2
15:29 66 °F 61 °F 30.09 in NNW 8 mph 13 mph 81% 0 in 86 W/m2
15:34 66 °F 60 °F 30.09 in NNW 7 mph 13 mph 82% 0 in 105 W/m2
15:39 66 °F 61 °F 30.09 in N 5 mph 11 mph 82% 0 in 113 W/m2
15:44 66 °F 61 °F 30.09 in N 3 mph 11 mph 82% 0 in 83 W/m2
15:49 67 °F 61 °F 30.09 in N 5 mph 11 mph 81% 0 in 39 W/m2
15:54 66 °F 61 °F 30.09 in NNW 4 mph 8 mph 81% 0 in 37 W/m2
15:59 66 °F 60 °F 30.09 in N 5 mph 10 mph 81% 0 in 51 W/m2
16:04 66 °F 60 °F 30.09 in N 6 mph 12 mph 81% 0 in 53 W/m2
16:09 66 °F 60 °F 30.08 in N 4 mph 9 mph 81% 0 in 58 W/m2
16:14 66 °F 60 °F 30.08 in N 7 mph 11 mph 80% 0 in 60 W/m2
16:19 66 °F 60 °F 30.08 in N 5 mph 9 mph 80% 0 in 56 W/m2
16:24 66 °F 60 °F 30.07 in NNW 7 mph 11 mph 80% 0 in 54 W/m2
16:29 66 °F 60 °F 30.07 in N 4 mph 11 mph 79% 0 in 47 W/m2
16:34 66 °F 60 °F 30.07 in N 6 mph 11 mph 79% 0 in 42 W/m2
16:39 66 °F 60 °F 30.07 in N 5 mph 10 mph 79% 0 in 81 W/m2
16:44 66 °F 60 °F 30.06 in N 6 mph 11 mph 79% 0 in 84 W/m2
16:49 66 °F 60 °F 30.06 in NNW 7 mph 13 mph 78% 0 in 100 W/m2
16:54 67 °F 60 °F 30.06 in NNW 6 mph 10 mph 79% 0 in 111 W/m2
16:59 67 °F 60 °F 30.06 in N 5 mph 9 mph 78% 0 in 91 W/m2
17:04 67 °F 60 °F 30.06 in NNW 5 mph 11 mph 78% 0 in 47 W/m2
17:09 66 °F 60 °F 30.06 in NNW 6 mph 13 mph 78% 0 in 47 W/m2
17:14 66 °F 60 °F 30.06 in NNW 4 mph 13 mph 79% 0 in 44 W/m2
17:19 66 °F 60 °F 30.06 in NNW 6 mph 10 mph 78% 0 in 60 W/m2
17:24 66 °F 59 °F 30.05 in NNW 6 mph 11 mph 77% 0 in 60 W/m2
17:29 66 °F 59 °F 30.06 in N 4 mph 8 mph 77% 0 in 56 W/m2
17:34 66 °F 59 °F 30.06 in NNW 5 mph 9 mph 77% 0 in 46 W/m2
17:39 66 °F 59 °F 30.06 in N 4 mph 9 mph 78% 0 in 35 W/m2
17:44 66 °F 59 °F 30.05 in N 3 mph 9 mph 78% 0 in 32 W/m2
17:49 66 °F 59 °F 30.06 in N 3 mph 5 mph 78% 0 in 39 W/m2
17:54 66 °F 59 °F 30.06 in N 4 mph 8 mph 78% 0 in 30 W/m2
17:59 66 °F 59 °F 30.05 in N 4 mph 8 mph 78% 0 in 35 W/m2
18:04 66 °F 59 °F 30.05 in N 5 mph 9 mph 78% 0 in 33 W/m2
18:09 66 °F 59 °F 30.05 in N 6 mph 11 mph 78% 0 in 39 W/m2
18:14 66 °F 59 °F 30.05 in N 6 mph 11 mph 77% 0 in 33 W/m2
18:19 66 °F 59 °F 30.05 in N 5 mph 10 mph 76% 0 in 16 W/m2
18:24 66 °F 59 °F 30.05 in N 5 mph 11 mph 76% 0 in 11 W/m2
18:29 66 °F 59 °F 30.05 in N 5 mph 10 mph 76% 0 in 11 W/m2
18:34 66 °F 58 °F 30.05 in N 4 mph 10 mph 76% 0 in 9 W/m2
18:39 66 °F 58 °F 30.05 in N 5 mph 9 mph 76% 0 in 5 W/m2
18:44 65 °F 58 °F 30.05 in N 4 mph 6 mph 76% 0 in 0 W/m2
18:49 65 °F 58 °F 30.05 in N 4 mph 8 mph 77% 0 in 0 W/m2
18:54 65 °F 58 °F 30.05 in N 3 mph 8 mph 77% 0 in 0 W/m2
18:59 65 °F 58 °F 30.06 in NNE 3 mph 7 mph 78% 0 in 0 W/m2
19:04 65 °F 58 °F 30.06 in N 3 mph 5 mph 78% 0 in 0 W/m2
19:09 65 °F 58 °F 30.06 in N 3 mph 5 mph 79% 0 in 0 W/m2
19:14 65 °F 58 °F 30.06 in NNE 2 mph 4 mph 79% 0 in 0 W/m2
19:19 65 °F 58 °F 30.06 in NNE 2 mph 4 mph 79% 0 in 0 W/m2
19:24 65 °F 58 °F 30.06 in NNE 3 mph 5 mph 79% 0 in 0 W/m2
19:29 65 °F 58 °F 30.06 in N 3 mph 4 mph 79% 0 in 0 W/m2
Villages of Bridgestone, Spring, TX USA
Compliments of Weather Underground - 2 mb